GIL weather

Gilgit Airport
Gilgit, Northern Areas, Pakistan

Public forecast

Using degrees Celsius for public forecast. Weather courtesy of forecast.io.

Current aviation weather report (METAR) for Gilgit Airport

Report is more than 6 hours old.

Retrieved 2017/07/06 03:00 UTC (3 years ago):

OPGT 060300Z 00000KT 8000 P.CLOUDY FEW040 SCT100 21/16 Q1011 A/V O/H CLOUDY

Closest aviation forecast (TAF) to Gilgit Airport

Closest forecast is Sheikh ul Alam Airport, 118.0 nm (218.5 km) S. Retrieved 2020-06-01 00:30 UTC (5 hours ago):

TAF VISR 312130Z 0100/0112 VRB02KT 6000 FEW025 SCT030 SCT100 TEMPO 0108/0112 27005G10KT TSRA FEW025 FEW030CB SCT200